createdAt,value
2017-01-25T00:00:43.917Z,84.42
2017-01-25T00:01:43.907Z,84.32
2017-01-25T00:02:43.889Z,84.23
2017-01-25T00:03:43.876Z,84.13
2017-01-25T00:04:43.863Z,84.04
2017-01-25T00:05:43.852Z,84.32
2017-01-25T00:06:43.836Z,84.13
2017-01-25T00:07:43.824Z,84.23
2017-01-25T00:08:43.809Z,83.85
2017-01-25T00:09:43.797Z,83.94
2017-01-25T00:10:43.834Z,83.75
2017-01-25T00:11:43.773Z,83.94
2017-01-25T00:12:43.757Z,83.94
2017-01-25T00:13:43.745Z,83.85
2017-01-25T00:14:43.730Z,84.13
2017-01-25T00:15:43.720Z,84.32
2017-01-25T00:16:43.706Z,84.51
2017-01-25T00:17:43.692Z,84.04
2017-01-25T00:18:43.678Z,83.94
2017-01-25T00:19:43.667Z,84.04
2017-01-25T00:20:43.654Z,84.04
2017-01-25T00:21:43.638Z,84.23
2017-01-25T00:22:43.623Z,84.23
2017-01-25T00:23:43.614Z,84.32
2017-01-25T00:24:43.599Z,84.61
2017-01-25T00:25:43.586Z,84.42
2017-01-25T00:26:43.572Z,84.04
2017-01-25T00:27:43.561Z,84.04
2017-01-25T00:28:43.546Z,84.42
2017-01-25T00:29:43.531Z,84.04
2017-01-25T00:30:43.518Z,84.04
2017-01-25T00:31:43.508Z,84.13
2017-01-25T00:32:43.492Z,84.04
2017-01-25T00:33:43.479Z,84.42
2017-01-25T00:34:43.467Z,84.61
2017-01-25T00:35:43.456Z,84.23
2017-01-25T00:36:43.441Z,84.42
2017-01-25T00:37:43.428Z,84.42
2017-01-25T00:38:43.415Z,84.23
2017-01-25T00:39:43.430Z,84.61
2017-01-25T00:40:43.388Z,84.32
2017-01-25T00:41:43.375Z,84.61
2017-01-25T00:42:43.362Z,84.04
2017-01-25T00:43:43.350Z,84.23
2017-01-25T00:44:43.335Z,84.51
2017-01-25T00:45:43.321Z,84.36
2017-01-25T00:46:43.310Z,84.42
2017-01-25T00:47:43.297Z,84.32
2017-01-25T00:48:43.286Z,84.61
2017-01-25T00:49:43.270Z,84.23
2017-01-25T00:50:43.255Z,84.23
2017-01-25T00:51:43.243Z,84.17
2017-01-25T00:52:43.230Z,84.32
2017-01-25T00:53:43.217Z,84.08
2017-01-25T00:54:43.207Z,84.27
2017-01-25T00:55:43.192Z,84.32
2017-01-25T00:56:43.176Z,84.13
2017-01-25T00:57:43.164Z,84.23
2017-01-25T00:58:43.151Z,84.04
2017-01-25T00:59:43.137Z,84.23
2017-01-25T01:00:43.513Z,84.23
2017-01-25T01:01:43.112Z,84.51
2017-01-25T01:02:43.098Z,84.13
2017-01-25T01:03:43.089Z,84.04
2017-01-25T01:04:43.076Z,83.89
2017-01-25T01:05:43.060Z,84.17
2017-01-25T01:06:43.047Z,84.08
2017-01-25T01:07:43.035Z,84.23
2017-01-25T01:08:43.029Z,84.17
2017-01-25T01:09:43.008Z,84.04
2017-01-25T01:10:42.995Z,83.85
2017-01-25T01:11:42.981Z,84.04
2017-01-25T01:12:42.970Z,83.94
2017-01-25T01:13:42.956Z,84.23
2017-01-25T01:14:42.941Z,84.23
2017-01-25T01:15:42.930Z,84.46
2017-01-25T01:16:42.913Z,84.04
2017-01-25T01:17:42.900Z,84.32
2017-01-25T01:18:42.888Z,84.55
2017-01-25T01:19:42.878Z,83.85
2017-01-25T01:20:42.862Z,84.08
2017-01-25T01:21:42.850Z,84.04
2017-01-25T01:22:42.839Z,83.85
2017-01-25T01:23:42.821Z,84.23
2017-01-25T01:24:42.807Z,84.32
2017-01-25T01:25:42.803Z,84.42
2017-01-25T01:26:42.784Z,83.94
2017-01-25T01:27:42.780Z,83.94
2017-01-25T01:28:42.758Z,84.23
2017-01-25T01:29:42.745Z,84.04
2017-01-25T01:30:42.731Z,84.13
2017-01-25T01:31:42.717Z,84.13
2017-01-25T01:32:42.703Z,84.13
2017-01-25T01:33:42.693Z,84.23
2017-01-25T01:34:42.680Z,84.23
2017-01-25T01:35:42.666Z,84.32
2017-01-25T01:36:42.650Z,84.51
2017-01-25T01:37:42.638Z,84.51
2017-01-25T01:38:42.628Z,84.42
2017-01-25T01:39:42.612Z,84.04
2017-01-25T01:40:42.599Z,83.94
2017-01-25T01:41:42.592Z,84.32
2017-01-25T01:42:42.571Z,84.23
2017-01-25T01:43:42.558Z,84.13
2017-01-25T01:44:42.932Z,84.32
2017-01-25T01:45:42.536Z,84.61
2017-01-25T01:46:42.906Z,84.42
2017-01-25T01:47:42.506Z,84.04
2017-01-25T01:48:42.494Z,84.32
2017-01-25T01:49:42.483Z,84.32
2017-01-25T01:50:42.468Z,84.23
2017-01-25T01:51:42.453Z,84.13
2017-01-25T01:52:42.441Z,84.51
2017-01-25T01:53:42.429Z,84.04
2017-01-25T01:54:42.416Z,84.04
2017-01-25T01:55:42.402Z,84.04
2017-01-25T01:56:42.388Z,84.13
2017-01-25T01:57:42.374Z,84.42
2017-01-25T01:58:42.666Z,84.51
2017-01-25T01:59:42.348Z,84.04
2017-01-25T02:00:42.332Z,84.04
2017-01-25T02:01:42.320Z,84.51
2017-01-25T02:02:42.309Z,84.04
2017-01-25T02:03:42.297Z,84.32
2017-01-25T02:04:42.284Z,84.04
2017-01-25T02:05:42.271Z,84.13
2017-01-25T02:06:42.256Z,84.42
2017-01-25T02:07:42.253Z,84.42
2017-01-25T02:08:42.234Z,84.42
2017-01-25T02:09:42.218Z,84.13
2017-01-25T02:10:42.203Z,84.13
2017-01-25T02:11:42.191Z,83.85
2017-01-25T02:12:42.176Z,84.13
2017-01-25T02:13:42.164Z,83.85
2017-01-25T02:14:42.152Z,84.23
2017-01-25T02:15:42.137Z,84.04
2017-01-25T02:16:42.124Z,84.04
2017-01-25T02:17:42.113Z,84.42
2017-01-25T02:18:42.117Z,84.42
2017-01-25T02:19:42.084Z,84.61
2017-01-25T02:20:42.096Z,84.42
2017-01-25T02:21:42.058Z,84.13
2017-01-25T02:22:42.046Z,84.04
2017-01-25T02:23:42.032Z,84.23
2017-01-25T02:24:42.017Z,84.13
2017-01-25T02:25:42.005Z,84.23
2017-01-25T02:26:42.004Z,84.13
2017-01-25T02:27:41.977Z,83.85
2017-01-25T02:28:41.969Z,84.13
2017-01-25T02:29:41.951Z,84.13
2017-01-25T02:30:41.942Z,84.04
2017-01-25T02:31:41.926Z,83.85
2017-01-25T02:32:41.912Z,84.13
2017-01-25T02:33:41.898Z,83.94
2017-01-25T02:34:41.885Z,83.85
2017-01-25T02:35:41.871Z,84.04
2017-01-25T02:36:41.860Z,83.85
2017-01-25T02:37:41.850Z,83.94
2017-01-25T02:38:41.831Z,83.66
2017-01-25T02:39:41.820Z,83.75
2017-01-25T02:40:41.805Z,83.85
2017-01-25T02:41:41.793Z,83.56
2017-01-25T02:42:41.779Z,83.66
2017-01-25T02:43:41.767Z,83.75
2017-01-25T02:44:41.753Z,83.94
2017-01-25T02:45:41.740Z,84.32
2017-01-25T02:46:41.728Z,83.94
2017-01-25T02:47:41.714Z,83.75
2017-01-25T02:48:41.702Z,83.66
2017-01-25T02:49:41.686Z,84.04
2017-01-25T02:50:41.674Z,83.94
2017-01-25T02:51:41.659Z,84.23
2017-01-25T02:52:41.649Z,84.23
2017-01-25T02:53:41.634Z,84.23
2017-01-25T02:54:41.620Z,84.23
2017-01-25T02:55:41.607Z,83.85
2017-01-25T02:56:41.614Z,84.32
2017-01-25T02:57:41.582Z,84.13
2017-01-25T02:58:41.570Z,83.85
2017-01-25T02:59:41.554Z,84.13
2017-01-25T03:00:41.541Z,84.04
2017-01-25T03:01:41.529Z,84.13
2017-01-25T03:02:41.512Z,83.94
2017-01-25T03:03:41.503Z,84.32
2017-01-25T03:04:41.488Z,83.94
2017-01-25T03:05:41.477Z,83.85
2017-01-25T03:06:41.461Z,84.13
2017-01-25T03:07:41.448Z,83.85
2017-01-25T03:08:41.434Z,84.04
2017-01-25T03:09:41.423Z,84.04
2017-01-25T03:10:41.410Z,84.23
2017-01-25T03:11:41.399Z,84.04
2017-01-25T03:12:41.381Z,84.32
2017-01-25T03:13:41.369Z,84.04
2017-01-25T03:14:41.358Z,83.85
2017-01-25T03:15:41.341Z,83.85
2017-01-25T03:16:41.331Z,83.85
2017-01-25T03:17:41.319Z,83.56
2017-01-25T03:18:41.694Z,83.85
2017-01-25T03:19:41.289Z,83.28
2017-01-25T03:20:41.278Z,83.75
2017-01-25T03:21:41.264Z,83.85
2017-01-25T03:22:41.251Z,83.66
2017-01-25T03:23:41.238Z,83.85
2017-01-25T03:24:41.225Z,83.85
2017-01-25T03:25:41.209Z,83.56
2017-01-25T03:26:41.196Z,84.13
2017-01-25T03:27:41.185Z,84.32
2017-01-25T03:28:41.170Z,84.32
2017-01-25T03:29:41.543Z,84.04
2017-01-25T03:30:41.142Z,83.66
2017-01-25T03:31:41.131Z,84.13
2017-01-25T03:32:41.117Z,83.66
2017-01-25T03:33:41.104Z,84.13
2017-01-25T03:34:41.091Z,84.04
2017-01-25T03:35:41.079Z,84.04
2017-01-25T03:36:41.067Z,84.04
2017-01-25T03:37:41.053Z,83.94
2017-01-25T03:38:41.036Z,84.04
2017-01-25T03:39:41.022Z,84.04
2017-01-25T03:40:41.014Z,83.94
2017-01-25T03:41:40.997Z,83.75
2017-01-25T03:42:40.985Z,83.56
2017-01-25T03:43:40.975Z,83.66
2017-01-25T03:44:40.958Z,83.85
2017-01-25T03:45:40.947Z,83.85
2017-01-25T03:46:40.932Z,83.94
2017-01-25T03:47:40.918Z,83.66
2017-01-25T03:48:40.907Z,83.66
2017-01-25T03:49:40.891Z,83.47
2017-01-25T03:50:40.883Z,83.37
2017-01-25T03:51:40.865Z,83.66
2017-01-25T03:52:40.853Z,83.85
2017-01-25T03:53:40.841Z,83.09
2017-01-25T03:54:40.825Z,83.28
2017-01-25T03:55:40.813Z,83.47
2017-01-25T03:56:40.801Z,83.28
2017-01-25T03:57:40.785Z,83.37
2017-01-25T03:58:40.772Z,83.09
2017-01-25T03:59:40.761Z,83.37
2017-01-25T04:00:40.748Z,83.28
2017-01-25T04:01:40.733Z,83.47
2017-01-25T04:02:40.718Z,83.18
2017-01-25T04:03:40.709Z,83.28
2017-01-25T04:04:40.693Z,83.18
2017-01-25T04:05:40.683Z,83.28
2017-01-25T04:06:40.667Z,82.9
2017-01-25T04:07:40.654Z,83.09
2017-01-25T04:08:40.644Z,83.28
2017-01-25T04:09:40.628Z,83.47
2017-01-25T04:10:40.614Z,83.37
2017-01-25T04:11:40.602Z,83
2017-01-25T04:12:40.588Z,83.28
2017-01-25T04:13:40.575Z,82.9
2017-01-25T04:14:40.562Z,83.47
2017-01-25T04:15:40.547Z,83.47
2017-01-25T04:16:40.536Z,83.18
2017-01-25T04:17:40.522Z,83.47
2017-01-25T04:18:40.509Z,83.09
2017-01-25T04:19:40.498Z,83.47
2017-01-25T04:20:40.482Z,83.56
2017-01-25T04:21:40.469Z,83.28
2017-01-25T04:22:40.458Z,83.37
2017-01-25T04:23:40.442Z,84.13
2017-01-25T04:24:40.430Z,84.04
2017-01-25T04:25:40.417Z,84.13
2017-01-25T04:26:40.406Z,84.32
2017-01-25T04:27:40.389Z,84.04
2017-01-25T04:28:40.374Z,84.32
2017-01-25T04:29:40.363Z,84.61
2017-01-25T04:30:40.348Z,84.8
2017-01-25T04:31:40.340Z,85.27
2017-01-25T04:32:40.322Z,84.99
2017-01-25T04:33:40.311Z,85.46
2017-01-25T04:34:40.296Z,85.46
2017-01-25T04:35:40.282Z,85.55
2017-01-25T04:36:40.267Z,86.03
2017-01-25T04:37:40.254Z,85.84
2017-01-25T04:38:40.629Z,86.03
2017-01-25T04:39:40.228Z,86.12
2017-01-25T04:40:40.220Z,86.31
2017-01-25T04:41:40.201Z,86.69
2017-01-25T04:42:40.189Z,86.5
2017-01-25T04:43:40.185Z,86.5
2017-01-25T04:44:40.163Z,86.69
2017-01-25T04:45:40.151Z,86.22
2017-01-25T04:46:40.136Z,86.31
2017-01-25T04:47:40.122Z,86.22
2017-01-25T04:48:40.108Z,86.31
2017-01-25T04:49:40.097Z,86.22
2017-01-25T04:50:40.115Z,86.12
2017-01-25T04:51:40.069Z,86.22
2017-01-25T04:52:40.082Z,86.03
2017-01-25T04:53:40.041Z,86.12
2017-01-25T04:54:40.031Z,86.5
2017-01-25T04:55:40.015Z,86.31
2017-01-25T04:56:40.001Z,86.5
2017-01-25T04:57:39.987Z,86.12
2017-01-25T04:58:39.976Z,85.93
2017-01-25T04:59:39.961Z,86.41
2017-01-25T05:00:39.948Z,85.65
2017-01-25T05:01:39.937Z,85.84
2017-01-25T05:02:39.941Z,86.03
2017-01-25T05:03:39.908Z,85.74
2017-01-25T05:04:39.893Z,85.84
2017-01-25T05:05:39.881Z,85.93
2017-01-25T05:06:39.871Z,85.74
2017-01-25T05:07:39.853Z,85.74
2017-01-25T05:08:39.844Z,85.74
2017-01-25T05:09:39.829Z,86.41
2017-01-25T05:10:39.812Z,86.22
2017-01-25T05:11:39.800Z,85.65
2017-01-25T05:12:39.787Z,85.84
2017-01-25T05:13:39.776Z,85.84
2017-01-25T05:14:39.760Z,86.22
2017-01-25T05:15:39.748Z,85.93
2017-01-25T05:16:39.732Z,86.03
2017-01-25T05:17:39.724Z,86.6
2017-01-25T05:18:39.706Z,86.69
2017-01-25T05:19:39.694Z,86.6
2017-01-25T05:20:39.680Z,87.26
2017-01-25T05:21:39.666Z,87.07
2017-01-25T05:22:39.657Z,87.07
2017-01-25T05:23:39.648Z,87.35
2017-01-25T05:24:39.633Z,87.35
2017-01-25T05:25:39.613Z,86.79
2017-01-25T05:26:39.602Z,87.35
2017-01-25T05:27:39.586Z,87.54
2017-01-25T05:28:39.571Z,87.16
2017-01-25T05:29:39.560Z,87.07
2017-01-25T05:30:39.546Z,87.64
2017-01-25T05:31:39.533Z,87.45
2017-01-25T05:32:39.521Z,86.98
2017-01-25T05:33:39.504Z,87.35
2017-01-25T05:34:39.491Z,87.16
2017-01-25T05:35:39.479Z,87.16
2017-01-25T05:36:39.475Z,87.35
2017-01-25T05:37:39.451Z,86.79
2017-01-25T05:38:39.466Z,86.98
2017-01-25T05:39:39.422Z,86.88
2017-01-25T05:40:39.411Z,86.5
2017-01-25T05:41:39.395Z,86.22
2017-01-25T05:42:39.383Z,86.12
2017-01-25T05:43:39.372Z,86.12
2017-01-25T05:44:39.355Z,86.12
2017-01-25T05:45:39.344Z,85.74
2017-01-25T05:46:39.330Z,85.93
2017-01-25T05:47:39.315Z,85.36
2017-01-25T05:48:39.305Z,85.46
2017-01-25T05:49:39.289Z,85.46
2017-01-25T05:50:39.277Z,85.46
2017-01-25T05:51:39.268Z,85.17
2017-01-25T05:52:39.248Z,85.65
2017-01-25T05:53:39.235Z,85.36
2017-01-25T05:54:39.221Z,85.46
2017-01-25T05:55:39.232Z,85.46
2017-01-25T05:56:39.195Z,85.17
2017-01-25T05:57:39.183Z,85.55
2017-01-25T05:58:39.168Z,84.89
2017-01-25T05:59:39.155Z,84.89
2017-01-25T06:00:39.141Z,85.17
2017-01-25T06:01:39.127Z,84.99
2017-01-25T06:02:39.113Z,84.8
2017-01-25T06:03:39.102Z,84.51
2017-01-25T06:04:39.117Z,84.61
2017-01-25T06:05:39.074Z,84.32
2017-01-25T06:06:39.063Z,84.32
2017-01-25T06:07:39.049Z,84.04
2017-01-25T06:08:39.039Z,83.94
2017-01-25T06:09:39.021Z,84.04
2017-01-25T06:10:39.008Z,84.23
2017-01-25T06:11:38.996Z,84.23
2017-01-25T06:12:38.982Z,84.04
2017-01-25T06:13:38.967Z,84.23
2017-01-25T06:14:38.955Z,84.23
2017-01-25T06:15:38.944Z,84.04
2017-01-25T06:16:38.930Z,83.56
2017-01-25T06:17:38.913Z,83.75
2017-01-25T06:18:38.902Z,83.66
2017-01-25T06:19:38.888Z,83.56
2017-01-25T06:20:38.874Z,83.85
2017-01-25T06:21:38.863Z,84.13
2017-01-25T06:22:38.849Z,83.85
2017-01-25T06:23:38.835Z,84.04
2017-01-25T06:24:38.824Z,84.23
2017-01-25T06:25:38.812Z,84.23
2017-01-25T06:26:38.795Z,84.32
2017-01-25T06:27:38.782Z,83.94
2017-01-25T06:28:38.769Z,84.23
2017-01-25T06:29:38.758Z,84.32
2017-01-25T06:30:38.766Z,84.42
2017-01-25T06:31:38.731Z,84.13
2017-01-25T06:32:38.743Z,84.04
2017-01-25T06:33:38.706Z,83.94
2017-01-25T06:34:38.712Z,83.94
2017-01-25T06:35:38.678Z,84.32
2017-01-25T06:36:38.664Z,84.04
2017-01-25T06:37:38.651Z,84.04
2017-01-25T06:38:38.636Z,84.13
2017-01-25T06:39:38.624Z,84.13
2017-01-25T06:40:38.610Z,84.13
2017-01-25T06:41:38.598Z,83.75
2017-01-25T06:42:38.619Z,83.94
2017-01-25T06:43:38.571Z,83.56
2017-01-25T06:44:38.565Z,83.37
2017-01-25T06:45:38.546Z,83.85
2017-01-25T06:46:38.531Z,83.85
2017-01-25T06:47:38.520Z,83.66
2017-01-25T06:48:38.505Z,83.85
2017-01-25T06:49:38.494Z,83.18
2017-01-25T06:50:38.480Z,83.47
2017-01-25T06:51:38.464Z,83.28
2017-01-25T06:52:38.452Z,83.47
2017-01-25T06:53:38.438Z,83.47
2017-01-25T06:54:38.429Z,83.47
2017-01-25T06:55:38.414Z,83.47
2017-01-25T06:56:38.400Z,83.47
2017-01-25T06:57:38.387Z,83.18
2017-01-25T06:58:38.372Z,83.47
2017-01-25T06:59:38.383Z,83.47
2017-01-25T07:00:38.348Z,83.18
2017-01-25T07:01:38.335Z,83.56
2017-01-25T07:02:38.320Z,83.28
2017-01-25T07:03:38.306Z,83.47
2017-01-25T07:04:38.296Z,83.47
2017-01-25T07:05:38.279Z,83.47
2017-01-25T07:06:38.266Z,83.37
2017-01-25T07:07:38.253Z,83.47
2017-01-25T07:08:38.247Z,83.47
2017-01-25T07:09:38.228Z,83.37
2017-01-25T07:10:38.214Z,83.47
2017-01-25T07:11:38.200Z,83.28
2017-01-25T07:12:38.195Z,83.47
2017-01-25T07:13:38.176Z,83.37
2017-01-25T07:14:38.162Z,83.18
2017-01-25T07:15:38.151Z,83.28
2017-01-25T07:16:38.137Z,82.71
2017-01-25T07:17:38.124Z,82.9
2017-01-25T07:18:38.110Z,82.85
2017-01-25T07:19:38.099Z,82.81
2017-01-25T07:20:38.083Z,83
2017-01-25T07:21:38.072Z,82.33
2017-01-25T07:22:38.055Z,82.52
2017-01-25T07:23:38.043Z,82.33
2017-01-25T07:24:38.036Z,82.43
2017-01-25T07:25:38.025Z,82.33
2017-01-25T07:26:38.004Z,82.56
2017-01-25T07:27:37.994Z,82.75
2017-01-25T07:28:37.977Z,82.75
2017-01-25T07:29:37.967Z,82.56
2017-01-25T07:30:37.951Z,82.47
2017-01-25T07:31:37.942Z,82.37
2017-01-25T07:32:37.936Z,82.47
2017-01-25T07:33:37.913Z,82.47
2017-01-25T07:34:37.901Z,82.66
2017-01-25T07:35:37.888Z,82.28
2017-01-25T07:36:37.873Z,82.37
2017-01-25T07:37:37.861Z,81.9
2017-01-25T07:38:37.848Z,81.99
2017-01-25T07:39:37.840Z,82.09
2017-01-25T07:40:37.821Z,82.09
2017-01-25T07:41:37.811Z,81.81
2017-01-25T07:42:37.795Z,81.62
2017-01-25T07:43:37.781Z,81.62
2017-01-25T07:44:37.772Z,81.81
2017-01-25T07:45:38.144Z,81.9
2017-01-25T07:46:37.743Z,82.09
2017-01-25T07:47:37.733Z,82.09
2017-01-25T07:48:37.744Z,82.09
2017-01-25T07:49:37.705Z,81.81
2017-01-25T07:50:37.693Z,81.81
2017-01-25T07:51:37.677Z,81.81
2017-01-25T07:52:37.665Z,81.52
2017-01-25T07:53:37.655Z,81.52
2017-01-25T07:54:37.645Z,81.62
2017-01-25T07:55:37.628Z,81.62
2017-01-25T07:56:37.615Z,81.62
2017-01-25T07:57:37.603Z,81.52
2017-01-25T07:58:37.587Z,81.62
2017-01-25T07:59:37.578Z,81.43
2017-01-25T08:00:37.564Z,81.62
2017-01-25T08:01:37.578Z,81.24
2017-01-25T08:02:37.537Z,81.14
2017-01-25T08:03:37.909Z,80.86
2017-01-25T08:04:37.512Z,81.14
2017-01-25T08:05:37.499Z,81.14
2017-01-25T08:06:37.485Z,80.86
2017-01-25T08:07:37.472Z,81.14
2017-01-25T08:08:37.459Z,81.14
2017-01-25T08:09:37.448Z,81.14
2017-01-25T08:10:37.435Z,80.86
2017-01-25T08:11:37.420Z,81.33
2017-01-25T08:12:37.409Z,81.33
2017-01-25T08:13:37.395Z,81.52
2017-01-25T08:14:37.381Z,81.24
2017-01-25T08:15:37.370Z,81.14
2017-01-25T08:16:37.356Z,81.24
2017-01-25T08:17:37.346Z,81.24
2017-01-25T08:18:37.329Z,81.33
2017-01-25T08:19:37.319Z,81.24
2017-01-25T08:20:37.310Z,80.95
2017-01-25T08:21:37.291Z,80.95
2017-01-25T08:22:37.279Z,80.95
2017-01-25T08:23:37.266Z,81.24
2017-01-25T08:24:37.638Z,81.14
2017-01-25T08:25:37.242Z,81.43
2017-01-25T08:26:37.232Z,81.43
2017-01-25T08:27:37.215Z,81.9
2017-01-25T08:28:37.201Z,81.9
2017-01-25T08:29:37.218Z,81.24
2017-01-25T08:30:37.205Z,81.24
2017-01-25T08:31:37.162Z,80.95
2017-01-25T08:32:37.149Z,80.95
2017-01-25T08:33:37.138Z,81.05
2017-01-25T08:34:37.124Z,81.33
2017-01-25T08:35:37.112Z,81.24
2017-01-25T08:36:37.100Z,81.05
2017-01-25T08:37:37.089Z,81.33
2017-01-25T08:38:37.074Z,80.95
2017-01-25T08:39:37.060Z,80.86
2017-01-25T08:40:37.047Z,80.76
2017-01-25T08:41:37.034Z,80.76
2017-01-25T08:42:37.053Z,80.67
2017-01-25T08:43:37.008Z,80.86
2017-01-25T08:44:36.997Z,81.05
2017-01-25T08:45:36.984Z,81.24
2017-01-25T08:46:36.974Z,80.95
2017-01-25T08:47:36.957Z,80.76
2017-01-25T08:48:36.946Z,80.76
2017-01-25T08:49:36.933Z,80.86
2017-01-25T08:50:36.920Z,80.95
2017-01-25T08:51:36.910Z,80.95
2017-01-25T08:52:36.897Z,80.95
2017-01-25T08:53:37.271Z,80.95
2017-01-25T08:54:36.870Z,81.14
2017-01-25T08:55:36.858Z,80.29
2017-01-25T08:56:36.844Z,80.95
2017-01-25T08:57:36.831Z,80.57
2017-01-25T08:58:36.818Z,80.19
2017-01-25T08:59:36.807Z,80.48
2017-01-25T09:00:36.792Z,80.67
2017-01-25T09:01:36.786Z,80.48
2017-01-25T09:02:36.770Z,80.86
2017-01-25T09:03:36.755Z,80.48
2017-01-25T09:04:36.745Z,80.76
2017-01-25T09:05:36.730Z,80.48
2017-01-25T09:06:36.718Z,80.19
2017-01-25T09:07:36.716Z,80.38
2017-01-25T09:08:36.701Z,80.67
2017-01-25T09:09:36.680Z,80.48
2017-01-25T09:10:36.677Z,80.57
2017-01-25T09:11:36.655Z,80.38
2017-01-25T09:12:36.645Z,80.29
2017-01-25T09:13:36.636Z,80.52
2017-01-25T09:14:36.617Z,80.57
2017-01-25T09:15:36.603Z,80.14
2017-01-25T09:16:36.591Z,80.1
2017-01-25T09:17:36.585Z,80.04
2017-01-25T09:18:36.567Z,80.52
2017-01-25T09:19:36.807Z,79.85
2017-01-25T09:20:36.544Z,79.82
2017-01-25T09:21:36.533Z,79.85
2017-01-25T09:22:36.518Z,79.85
2017-01-25T09:23:36.507Z,80.24
2017-01-25T09:24:36.492Z,80.14
2017-01-25T09:25:36.481Z,79.95
2017-01-25T09:26:36.470Z,79.95
2017-01-25T09:27:36.461Z,80.04
2017-01-25T09:28:36.443Z,79.76
2017-01-25T09:29:36.432Z,79.47
2017-01-25T09:30:36.420Z,79.38
2017-01-25T09:31:36.413Z,79.66
2017-01-25T09:32:36.396Z,79.47
2017-01-25T09:33:36.380Z,79.76
2017-01-25T09:34:36.371Z,79.19
2017-01-25T09:35:36.356Z,79.28
2017-01-25T09:36:36.347Z,78.91
2017-01-25T09:37:36.333Z,79.19
2017-01-25T09:38:36.320Z,79.38
2017-01-25T09:39:36.308Z,79.38
2017-01-25T09:40:36.302Z,79.57
2017-01-25T09:41:36.283Z,78.81
2017-01-25T09:42:36.272Z,78.34
2017-01-25T09:43:36.292Z,78.91
2017-01-25T09:44:36.249Z,78.62
2017-01-25T09:45:36.236Z,78.53
2017-01-25T09:46:36.223Z,78.34
2017-01-25T09:47:36.211Z,78.34
2017-01-25T09:48:36.201Z,78.43
2017-01-25T09:49:36.190Z,78.43
2017-01-25T09:50:36.175Z,78.34
2017-01-25T09:51:36.164Z,78.43
2017-01-25T09:52:36.150Z,78.34
2017-01-25T09:53:36.166Z,78.43
2017-01-25T09:54:36.129Z,78.34
2017-01-25T09:55:36.114Z,78.34
2017-01-25T09:56:36.105Z,78.34
2017-01-25T09:57:36.093Z,78.43
2017-01-25T09:58:36.079Z,78.43
2017-01-25T09:59:36.068Z,78.34
2017-01-25T10:00:36.056Z,78.34
2017-01-25T10:01:36.045Z,77.77
2017-01-25T10:02:36.032Z,77.67
2017-01-25T10:03:36.023Z,77.96
2017-01-25T10:04:36.398Z,77.96
2017-01-25T10:05:35.998Z,77.67
2017-01-25T10:06:35.984Z,77.77
2017-01-25T10:07:35.972Z,77.77
2017-01-25T10:08:35.961Z,77.77
2017-01-25T10:09:35.950Z,78.15
2017-01-25T10:10:35.938Z,78.24
2017-01-25T10:11:35.925Z,78.05
2017-01-25T10:12:35.918Z,77.43
2017-01-25T10:13:35.907Z,77.77
2017-01-25T10:14:35.891Z,77.96
2017-01-25T10:15:35.883Z,78.09
2017-01-25T10:16:35.867Z,77.48
2017-01-25T10:17:35.855Z,77.67
2017-01-25T10:18:35.843Z,77.67
2017-01-25T10:19:35.834Z,76.95
2017-01-25T10:20:35.822Z,77.14
2017-01-25T10:21:35.813Z,76.95
2017-01-25T10:22:35.796Z,77.14
2017-01-25T10:23:35.784Z,77.14
2017-01-25T10:24:35.774Z,76.86
2017-01-25T10:25:35.792Z,77.24
2017-01-25T10:26:35.751Z,76.86
2017-01-25T10:27:35.738Z,76.76
2017-01-25T10:28:35.726Z,76.67
2017-01-25T10:29:35.739Z,76.67
2017-01-25T10:30:35.705Z,76.67
2017-01-25T10:31:35.692Z,76.86
2017-01-25T10:32:35.680Z,76.39
2017-01-25T10:33:35.667Z,76.76
2017-01-25T10:34:35.663Z,76.67
2017-01-25T10:35:35.643Z,76.57
2017-01-25T10:36:35.634Z,76.67
2017-01-25T10:37:35.623Z,76.67
2017-01-25T10:38:35.611Z,76.67
2017-01-25T10:39:35.601Z,76.95
2017-01-25T10:40:35.589Z,76.86
2017-01-25T10:41:35.580Z,76.67
2017-01-25T10:42:35.564Z,76.39
2017-01-25T10:43:35.556Z,76.39
2017-01-25T10:44:35.543Z,76.48
2017-01-25T10:45:35.529Z,76.39
2017-01-25T10:46:35.524Z,76.01
2017-01-25T10:47:35.506Z,75.43
2017-01-25T10:48:35.498Z,76.01
2017-01-25T10:49:35.486Z,75.43
2017-01-25T10:50:35.470Z,75.34
2017-01-25T10:51:35.464Z,75.91
2017-01-25T10:52:35.451Z,76.1
2017-01-25T10:53:35.443Z,76.1
2017-01-25T10:54:35.427Z,75.53
2017-01-25T10:55:35.416Z,75.91
2017-01-25T10:56:35.409Z,76.01
2017-01-25T10:57:35.392Z,75.53
2017-01-25T10:58:35.383Z,75.43
2017-01-25T10:59:35.372Z,75.53
2017-01-25T11:00:35.361Z,75.53
2017-01-25T11:01:35.349Z,75.05
2017-01-25T11:02:35.337Z,75.24
2017-01-25T11:03:35.329Z,75.15
2017-01-25T11:04:35.315Z,75.24
2017-01-25T11:05:35.306Z,75
2017-01-25T11:06:35.294Z,74.81
2017-01-25T11:07:35.284Z,74.81
2017-01-25T11:08:35.272Z,74.58
2017-01-25T11:09:35.260Z,75.28
2017-01-25T11:10:35.252Z,74.96
2017-01-25T11:11:35.241Z,75.28
2017-01-25T11:12:35.227Z,74.9
2017-01-25T11:13:35.222Z,74.9
2017-01-25T11:14:35.206Z,75.28
2017-01-25T11:15:35.198Z,74.77
2017-01-25T11:16:35.183Z,74.81
2017-01-25T11:17:35.173Z,74.71
2017-01-25T11:18:35.160Z,74.81
2017-01-25T11:19:35.152Z,74.81
2017-01-25T11:20:35.141Z,75
2017-01-25T11:21:35.129Z,74.33
2017-01-25T11:22:35.117Z,73.96
2017-01-25T11:23:35.106Z,74.15
2017-01-25T11:24:35.095Z,74.15
2017-01-25T11:25:35.084Z,74.15
2017-01-25T11:26:35.075Z,74.15
2017-01-25T11:27:35.063Z,74.05
2017-01-25T11:28:35.054Z,74.24
2017-01-25T11:29:35.042Z,74.15
2017-01-25T11:30:35.028Z,73.86
2017-01-25T11:31:35.018Z,73.67
2017-01-25T11:32:35.008Z,73.57
2017-01-25T11:33:34.997Z,73.67
2017-01-25T11:34:34.985Z,73.96
2017-01-25T11:35:34.976Z,73.67
2017-01-25T11:36:34.964Z,73.76
2017-01-25T11:37:34.953Z,73.76
2017-01-25T11:38:34.943Z,74.15
2017-01-25T11:39:34.934Z,73.96
2017-01-25T11:40:34.920Z,73.76
2017-01-25T11:41:34.911Z,73.76
2017-01-25T11:42:34.903Z,73.48
2017-01-25T11:43:34.890Z,74.15
2017-01-25T11:44:34.877Z,73.38
2017-01-25T11:45:34.866Z,73.76
2017-01-25T11:46:34.856Z,73.86
2017-01-25T11:47:34.844Z,74.15
2017-01-25T11:48:34.834Z,74.33
2017-01-25T11:49:34.823Z,74.43
2017-01-25T11:50:34.812Z,73.96
2017-01-25T11:51:34.802Z,74.05
2017-01-25T11:52:34.790Z,73.96
2017-01-25T11:53:34.780Z,73.96
2017-01-25T11:54:34.767Z,73.67
2017-01-25T11:55:34.757Z,74.43
2017-01-25T11:56:34.744Z,73.96
2017-01-25T11:57:34.741Z,74.15
2017-01-25T11:58:34.723Z,74.24
2017-01-25T11:59:34.715Z,74.43
2017-01-25T12:00:34.701Z,73.96
2017-01-25T12:01:34.693Z,74.15
2017-01-25T12:02:34.712Z,74.33
2017-01-25T12:03:34.669Z,73.96
2017-01-25T12:04:34.666Z,74.33
2017-01-25T12:05:34.649Z,74.33
2017-01-25T12:06:34.636Z,73.96
2017-01-25T12:07:34.624Z,74.33
2017-01-25T12:08:34.613Z,74.33
2017-01-25T12:09:34.607Z,74.05
2017-01-25T12:10:34.593Z,73.29
2017-01-25T12:11:34.581Z,74.43
2017-01-25T12:12:34.571Z,73.86
2017-01-25T12:13:34.558Z,74.52
2017-01-25T12:14:34.547Z,74.05
2017-01-25T12:15:34.536Z,73.96
2017-01-25T12:16:34.526Z,74.24
2017-01-25T12:17:34.515Z,74.24
2017-01-25T12:18:34.502Z,73.86
2017-01-25T12:19:34.491Z,73.96
2017-01-25T12:20:34.481Z,73.96
2017-01-25T12:21:34.470Z,74.33
2017-01-25T12:22:34.458Z,74.15
2017-01-25T12:23:34.448Z,73.96
2017-01-25T12:24:34.825Z,73.96
2017-01-25T12:25:34.426Z,74.15
2017-01-25T12:26:34.415Z,74.52
2017-01-25T12:27:34.402Z,74.52
2017-01-25T12:28:34.393Z,74.81
2017-01-25T12:29:34.380Z,74.33
2017-01-25T12:30:34.370Z,74.33
2017-01-25T12:31:34.360Z,74.33
2017-01-25T12:32:34.349Z,74.24
2017-01-25T12:33:34.337Z,74.24
2017-01-25T12:34:34.328Z,74.43
2017-01-25T12:35:34.318Z,74.24
2017-01-25T12:36:34.305Z,74.15
2017-01-25T12:37:34.295Z,73.96
2017-01-25T12:38:34.311Z,74.15
2017-01-25T12:39:34.272Z,73.96
2017-01-25T12:40:34.260Z,74.05
2017-01-25T12:41:34.249Z,74.15
2017-01-25T12:42:34.236Z,74.52
2017-01-25T12:43:34.226Z,74.87
2017-01-25T12:44:34.216Z,74.24
2017-01-25T12:45:34.210Z,75.09
2017-01-25T12:46:34.196Z,74.87
2017-01-25T12:47:34.183Z,74.68
2017-01-25T12:48:34.172Z,74.49
2017-01-25T12:49:34.170Z,74.9
2017-01-25T12:50:34.150Z,74.43
2017-01-25T12:51:34.137Z,74.68
2017-01-25T12:52:34.130Z,74.58
2017-01-25T12:53:34.120Z,74.52